Airfield :
LOGIN :

Register | Disclaimer

   EN    FR    IT 

 










Legend :    VFR   Marginal VFR   IFR   Intensive IFR   Very Intensive IFR
Visi :
Ceiling :
>= 8 km
>= 3000ft
5 to 8 km
1000 to 3000 ft
1500m to 5 km
500 to 1000 ft
800 to 1500m
200 to 500 ft
< 800m
< 200 ft
Symbols :   Thunderstorms  Fog  Heavy snow  Heavy precipitations  Wind > 20 kt
SIGMETs :     Misc.  Thunderstorms  Icing  Turbulence  Mountain Waves  Volcanic Ashes






- Airport Elevation : 46 ft
- IATA code : SNN


EINN - Shannon

CURRENT METAR :
  • 161030Z 16011KT 9999 FEW015 SCT070 BKN130 14/11 Q1014 NOSIG

EXPIRED METARs :
  • 161000Z 15010KT 9999 FEW015 SCT080 BKN130 14/12 Q1015 NOSIG
  • 160930Z 14010KT 9999 FEW014 SCT080 BKN130 14/12 Q1015 NOSIG
  • 160900Z 12007KT 9999 FEW012 BKN130 13/12 Q1015 NOSIG
  • 160830Z 12009KT 9999 FEW015 BKN140 12/11 Q1015 NOSIG
  • 160800Z 12007KT 9999 FEW007 BKN200 12/11 Q1015 NOSIG

TAF TAF EINN
Valid from the 16 at 06:00 until the 17 at 06:00 UTC


160500Z 1606/1706 11008KT 9999 FEW018 BKN040
TEMPO 1606/1608 3000 BR BKN005
PROB30
TEMPO 1608/1609 3000 BR
BECMG 1609/1611 15013KT
PROB30
TEMPO 1615/1619 5000 RA
PROB30
TEMPO 1619/1622 4000 -RA BKN012
BECMG 1622/1624 18010KT
TEMPO 1622/1624 4000 -RA BKN012
BECMG 1700/1702 21010KT 4000 -DZ BR BKN010
BECMG 1702/1704 24008KT
TEMPO 1702/1706 2000 BKN004



MET'MAP, your aeronautical weather chart ! - Copyright ORBIFLY December 2007 - Disclaimer

ORBIFLY MET'MAP TEAM :

Programming & Development : Alexandra Zaïnal
Concept & original design : Baudouin d'Aumeries
Assistance for programming : Marc-Olivier Méhu
Technical & hardware support : Manuel Goepfert

Contact : metmap@orbifly.com




SOURCES & CREDITS :

   NOAA